aviador You're here:

OITZ Decoded Metar

ZANJAN in IRAN
Report Time2017-08-24 08:00:00
UTC Time2017-08-24 08:52:42
Flight Rules vfr VFR
Wind090° at 21 kt
W.Decomp.*RWY 12: 17.6 kt HW 11.4 kt LCW
W.Rank090° ranks 2
Current wind is above 090° avg. (12.3)
Visibility9999 m
Phenomena:N/A
Clouds:N/A
Expected CloudBase > 10,400 ft AGL from Temp-Dew spread
CeilingNone
Temp32°C (ISA +28)
Dew Point06°C (20% RH)
Heat Index30.0°C
AAT23.6°C
QNH1018 hPa
Density Alt8,547 ft
Elevation5,456 ft
Report Wrong Elevation
Raw Report
METAR OITZ 240800Z 09021KT CAVOK 32/06 Q1018=

Extra information for OITZ:More info

Metar Taf Metar & Taf Last 4 Metars F.Rules Stats Wind Profile Meteogram Temp Stats Airport Information Weather charts Add Link Nearby VenuesMetar ALERT Operation Metar Decoded Social comments